Aviation Digital Data Service (ADDS)

Output produced by METARs form (0238 UTC 24 June 2021)
found at http://aviationweather.gov/metar/data/
 
METAR text: KSBS 240215Z AUTO 00000KT 10SM BKN100 22/03 A3016 RMK AO1 T02150025
Conditions at: KSBS (STEAMBOAT SPRING, CO, US) observed 0215 UTC 24 June 2021
Temperature: 21.5°C (71°F)
Dewpoint: 2.5°C (36°F) [RH = 29%]
Pressure (altimeter): 30.16 inches Hg (1021.4 mb)
Winds: calm
Visibility: 10 or more miles (16+ km)
Ceiling: 10000 feet AGL
Clouds: broken clouds at 10000 feet AGL
Weather: automated observation with no human augmentation;
there may or may not be significant weather present at this time

METAR text: KSBS 240155Z AUTO 00000KT 10SM SCT110 21/02 A3016 RMK AO1 T02130017
Conditions at: KSBS (STEAMBOAT SPRING, CO, US) observed 0155 UTC 24 June 2021
Temperature: 21.3°C (70°F)
Dewpoint: 1.7°C (35°F) [RH = 27%]
Pressure (altimeter): 30.16 inches Hg (1021.4 mb)
Winds: calm
Visibility: 10 or more miles (16+ km)
Ceiling: at least 12,000 feet AGL
Clouds: scattered clouds at 11000 feet AGL
Weather: automated observation with no human augmentation;
there may or may not be significant weather present at this time